MSC Kia Ora — A8JG6 — position and weather

sailwx.info

Track history (hours):
 
Tides and Currents Weather Stations Pressure Air Temp Water Temp Dewpoint Dewpoint Depression Visibility Wind Speed Wind Dir Waves Ship Positions

MSC Kia Ora

Last reported at 2017-Nov-16 19:00 UTC. Time now 2017-Nov-18 17:59 UTC.
Position S 35°50' E 175°26'.

Length 148 m; draft 7.4 m.

Type: Ship (hazmat cat D). MMSI: 636017700.

Date/timePositionNaut miles runAvg speedWind from/ knotsBaromVisibWave heightAir tempDewpointWater temp
2017-Nov-16 19:00S 35°50' E 175°26'914.9
2017-Nov-16 18:24S 35°56' E 175°34'614.5
2017-Nov-16 17:58S 36°00' E 175°39'1114.4
2017-Nov-16 17:14S 36°10' E 175°45'2014.4
2017-Nov-16 15:51S 36°27' E 175°57'6713.9
2017-Nov-16 11:03S 37°33' E 176°12'114.2
2017-Nov-16 10:57S 37°34' E 176°11'510.2
2017-Nov-16 10:30S 37°39' E 176°11'1 1.5
2017-Nov-16 09:59S 37°40' E 176°11'0 0.0
2017-Nov-16 09:29S 37°40' E 176°11'0 0.0
2017-Nov-16 08:59S 37°40' E 176°11'0 0.0
2017-Nov-16 08:29S 37°40' E 176°11'0 0.0
2017-Nov-16 07:59S 37°40' E 176°11'0 0.0
2017-Nov-16 07:29S 37°40' E 176°11'0 0.0
2017-Nov-16 06:59S 37°40' E 176°11'0 0.0
2017-Nov-16 06:29S 37°40' E 176°11'0 0.0
2017-Nov-16 05:59S 37°40' E 176°11'0 0.0
2017-Nov-16 05:30S 37°40' E 176°11'3 5.7
2017-Nov-16 05:00S 37°37' E 176°10'4 7.9
2017-Nov-16 04:30S 37°33' E 176°12'82 9.2
2017-Nov-15 19:42S 36°27' E 175°12'2 9.3
2017-Nov-15 19:30S 36°28' E 175°10'5 9.4
2017-Nov-15 19:00S 36°31' E 175°05'5 9.5
2017-Nov-15 18:30S 36°34' E 175°01'5 9.7
2017-Nov-15 18:00S 36°37' E 174°57'5 9.5
2017-Nov-15 17:30S 36°41' E 174°53'5 9.5
2017-Nov-15 17:00S 36°45' E 174°50'510.0
2017-Nov-15 16:30S 36°50' E 174°49'2 3.9
2017-Nov-15 15:59S 36°51' E 174°47'0 0.0
2017-Nov-15 15:29S 36°51' E 174°47'0 0.0
2017-Nov-15 14:59S 36°51' E 174°47'0 0.0
2017-Nov-15 14:29S 36°51' E 174°47'0 0.0
2017-Nov-15 14:00S 36°51' E 174°47'0 0.0
2017-Nov-15 13:30S 36°51' E 174°47'0 0.0
2017-Nov-15 12:59S 36°51' E 174°47'0 0.0
2017-Nov-15 11:34S 36°51' E 174°47'0 0.0
2017-Nov-15 11:29S 36°51' E 174°47'0 0.0
2017-Nov-15 11:00S 36°51' E 174°47'0 0.0
2017-Nov-15 10:30S 36°51' E 174°47'0 0.0
2017-Nov-15 10:00S 36°51' E 174°47'0 0.0
2017-Nov-15 09:23S 36°51' E 174°47'0 0.0
2017-Nov-15 08:57S 36°51' E 174°47'0 0.0
2017-Nov-15 08:21S 36°51' E 174°47'0 0.0
2017-Nov-15 06:57S 36°51' E 174°47'0 0.2
2017-Nov-15 06:30S 36°51' E 174°47'2 3.9
2017-Nov-15 05:58S 36°50' E 174°49'510.7
2017-Nov-15 05:30S 36°45' E 174°50'4 8.6
2017-Nov-15 05:00S 36°42' E 174°53'5 9.9
2017-Nov-15 04:30S 36°37' E 174°57'5 9.7
2017-Nov-15 04:00S 36°33' E 174°60'5 9.7
2017-Nov-15 03:30S 36°28' E 174°60'5 9.5
2017-Nov-15 03:00S 36°23' E 175°00'5 9.8
2017-Nov-15 02:30S 36°19' E 175°01'5 9.6
2017-Nov-15 02:00S 36°14' E 175°01'510.6
2017-Nov-15 01:30S 36°09' E 174°60'  
2017-Nov-12 03:30S 22°34' E 166°20'612.4
2017-Nov-12 03:00S 22°28' E 166°17'611.8
2017-Nov-12 02:30S 22°23' E 166°14'611.5
2017-Nov-12 02:00S 22°19' E 166°18'713.3
2017-Nov-12 01:31S 22°15' E 166°24'3 5.0
2017-Nov-12 01:00S 22°16' E 166°26'0 0.0
2017-Nov-12 00:30S 22°16' E 166°26'0 0.0
2017-Nov-12 00:00S 22°16' E 166°26'0 0.0
2017-Nov-11 23:30S 22°16' E 166°26'0 0.0
2017-Nov-11 23:00S 22°16' E 166°26'0 0.0
2017-Nov-11 22:27S 22°16' E 166°26'0 0.0
2017-Nov-11 22:00S 22°16' E 166°26'0 0.0
2017-Nov-11 21:30S 22°16' E 166°26'0 0.0
2017-Nov-11 21:00S 22°16' E 166°26'0 0.0
2017-Nov-11 20:30S 22°16' E 166°26'0 0.0
2017-Nov-11 20:00S 22°16' E 166°26'0 0.0
2017-Nov-11 19:30S 22°16' E 166°26'0 0.0
2017-Nov-11 19:00S 22°16' E 166°26'0 0.0
2017-Nov-11 18:30S 22°16' E 166°26'1 2.4
2017-Nov-11 18:00S 22°15' E 166°25'611.4
2017-Nov-11 17:30S 22°17' E 166°19'713.3
2017-Nov-11 17:00S 22°22' E 166°14'4 7.5
2017-Nov-11 16:30S 22°24' E 166°11'4 9.1
2017-Nov-11 16:00S 22°26' E 166°06'  
2017-Nov-08 23:15S 26°56' E 153°12'413.2
2017-Nov-08 22:58S 26°60' E 153°14'612.2
2017-Nov-08 22:27S 27°05' E 153°19'613.0
2017-Nov-08 22:00S 27°10' E 153°21'612.7
2017-Nov-08 21:30S 27°15' E 153°18'713.4
2017-Nov-08 21:00S 27°20' E 153°12'2 4.8
2017-Nov-08 20:29S 27°22' E 153°11'0 0.0
2017-Nov-08 19:59S 27°22' E 153°11'0 0.0
2017-Nov-08 19:29S 27°22' E 153°11'0 0.0
2017-Nov-08 18:59S 27°22' E 153°11'0 0.0
2017-Nov-08 18:29S 27°22' E 153°11'0 0.0
2017-Nov-08 17:59S 27°22' E 153°11'0 0.0
2017-Nov-08 17:29S 27°22' E 153°11'0 0.0
2017-Nov-08 16:59S 27°22' E 153°11'0 0.0
2017-Nov-08 16:29S 27°22' E 153°11'0 0.0
2017-Nov-08 15:59S 27°22' E 153°11'0 0.0
2017-Nov-08 15:29S 27°22' E 153°11'0 0.0
2017-Nov-08 14:59S 27°22' E 153°11'0 0.0
2017-Nov-08 14:29S 27°22' E 153°11'0 0.0
2017-Nov-08 13:59S 27°22' E 153°11'0 0.0
2017-Nov-08 13:29S 27°22' E 153°11'0 0.0
2017-Nov-08 12:59S 27°22' E 153°11'0 0.0
2017-Nov-08 12:29S 27°22' E 153°11'0 0.0
2017-Nov-08 11:59S 27°22' E 153°11'0 0.0
2017-Nov-08 11:29S 27°22' E 153°11'0 0.0
2017-Nov-08 10:56S 27°22' E 153°11'0 0.0
2017-Nov-08 10:29S 27°22' E 153°11'0 0.0
2017-Nov-08 09:59S 27°22' E 153°11'0 0.0
2017-Nov-08 09:29S 27°22' E 153°11'0 0.0
2017-Nov-08 08:59S 27°22' E 153°11'0 0.0
2017-Nov-08 08:29S 27°22' E 153°11'0 0.0
2017-Nov-08 07:59S 27°22' E 153°11'0 0.4
2017-Nov-08 07:30S 27°22' E 153°10'4 7.4
2017-Nov-08 07:00S 27°19' E 153°13'612.9
2017-Nov-08 06:30S 27°15' E 153°19'611.3
2017-Nov-08 06:00S 27°10' E 153°21'510.9
2017-Nov-08 05:30S 27°05' E 153°19'510.7
2017-Nov-08 05:00S 27°01' E 153°15'612.0
2017-Nov-08 04:30S 26°55' E 153°12'45 7.4
2017-Nov-07 22:23S 27°33' E 153°40'513.0
2017-Nov-07 22:00S 27°38' E 153°40'612.7
2017-Nov-07 21:30S 27°44' E 153°41'612.9
2017-Nov-07 21:00S 27°51' E 153°41'713.2
2017-Nov-07 20:30S 27°57' E 153°42'713.1
2017-Nov-07 20:00S 28°04' E 153°42'612.4
2017-Nov-07 19:30S 28°10' E 153°43'612.6
2017-Nov-07 19:00S 28°16' E 153°43'712.5
2017-Nov-07 18:29S 28°23' E 153°43'25213.1
2017-Nov-06 23:15S 32°28' E 152°38'312.2
2017-Nov-06 23:00S 32°31' E 152°36'612.3
2017-Nov-06 22:29S 32°36' E 152°31'611.9
2017-Nov-06 22:00S 32°40' E 152°26'611.9
2017-Nov-06 21:30S 32°44' E 152°22'611.9
2017-Nov-06 21:00S 32°49' E 152°17'611.8
2017-Nov-06 20:30S 32°53' E 152°12'  
Track history (hours):
 
Tides and Currents Weather Stations Pressure Air Temp Water Temp Dewpoint Dewpoint Depression Visibility Wind Speed Wind Dir Waves Ship Positions

MSC Kia Ora

Last reported at 2017-Nov-16 19:00 UTC. Time now 2017-Nov-18 17:59 UTC.
Position S 35°50' E 175°26'.

Length 148 m; draft 7.4 m.

Type: Ship (hazmat cat D). MMSI: 636017700.

Date/timePositionNaut miles runAvg speedWind from/ knotsBaromVisibWave heightAir tempDewpointWater temp
2017-Nov-16 19:00S 35°50' E 175°26'914.9
2017-Nov-16 18:24S 35°56' E 175°34'614.5
2017-Nov-16 17:58S 36°00' E 175°39'1114.4
2017-Nov-16 17:14S 36°10' E 175°45'2014.4
2017-Nov-16 15:51S 36°27' E 175°57'6713.9
2017-Nov-16 11:03S 37°33' E 176°12'114.2
2017-Nov-16 10:57S 37°34' E 176°11'510.2
2017-Nov-16 10:30S 37°39' E 176°11'1 1.5
2017-Nov-16 09:59S 37°40' E 176°11'0 0.0
2017-Nov-16 09:29S 37°40' E 176°11'0 0.0
2017-Nov-16 08:59S 37°40' E 176°11'0 0.0
2017-Nov-16 08:29S 37°40' E 176°11'0 0.0
2017-Nov-16 07:59S 37°40' E 176°11'0 0.0
2017-Nov-16 07:29S 37°40' E 176°11'0 0.0
2017-Nov-16 06:59S 37°40' E 176°11'0 0.0
2017-Nov-16 06:29S 37°40' E 176°11'0 0.0
2017-Nov-16 05:59S 37°40' E 176°11'0 0.0
2017-Nov-16 05:30S 37°40' E 176°11'3 5.7
2017-Nov-16 05:00S 37°37' E 176°10'4 7.9
2017-Nov-16 04:30S 37°33' E 176°12'82 9.2
2017-Nov-15 19:42S 36°27' E 175°12'2 9.3
2017-Nov-15 19:30S 36°28' E 175°10'5 9.4
2017-Nov-15 19:00S 36°31' E 175°05'5 9.5
2017-Nov-15 18:30S 36°34' E 175°01'5 9.7
2017-Nov-15 18:00S 36°37' E 174°57'5 9.5
2017-Nov-15 17:30S 36°41' E 174°53'5 9.5
2017-Nov-15 17:00S 36°45' E 174°50'510.0
2017-Nov-15 16:30S 36°50' E 174°49'2 3.9
2017-Nov-15 15:59S 36°51' E 174°47'0 0.0
2017-Nov-15 15:29S 36°51' E 174°47'0 0.0
2017-Nov-15 14:59S 36°51' E 174°47'0 0.0
2017-Nov-15 14:29S 36°51' E 174°47'0 0.0
2017-Nov-15 14:00S 36°51' E 174°47'0 0.0
2017-Nov-15 13:30S 36°51' E 174°47'0 0.0
2017-Nov-15 12:59S 36°51' E 174°47'0 0.0
2017-Nov-15 11:34S 36°51' E 174°47'0 0.0
2017-Nov-15 11:29S 36°51' E 174°47'0 0.0
2017-Nov-15 11:00S 36°51' E 174°47'0 0.0
2017-Nov-15 10:30S 36°51' E 174°47'0 0.0
2017-Nov-15 10:00S 36°51' E 174°47'0 0.0
2017-Nov-15 09:23S 36°51' E 174°47'0 0.0
2017-Nov-15 08:57S 36°51' E 174°47'0 0.0
2017-Nov-15 08:21S 36°51' E 174°47'0 0.0
2017-Nov-15 06:57S 36°51' E 174°47'0 0.2
2017-Nov-15 06:30S 36°51' E 174°47'2 3.9
2017-Nov-15 05:58S 36°50' E 174°49'510.7
2017-Nov-15 05:30S 36°45' E 174°50'4 8.6
2017-Nov-15 05:00S 36°42' E 174°53'5 9.9
2017-Nov-15 04:30S 36°37' E 174°57'5 9.7
2017-Nov-15 04:00S 36°33' E 174°60'5 9.7
2017-Nov-15 03:30S 36°28' E 174°60'5 9.5
2017-Nov-15 03:00S 36°23' E 175°00'5 9.8
2017-Nov-15 02:30S 36°19' E 175°01'5 9.6
2017-Nov-15 02:00S 36°14' E 175°01'510.6
2017-Nov-15 01:30S 36°09' E 174°60'  
2017-Nov-12 03:30S 22°34' E 166°20'612.4
2017-Nov-12 03:00S 22°28' E 166°17'611.8
2017-Nov-12 02:30S 22°23' E 166°14'611.5
2017-Nov-12 02:00S 22°19' E 166°18'713.3
2017-Nov-12 01:31S 22°15' E 166°24'3 5.0
2017-Nov-12 01:00S 22°16' E 166°26'0 0.0
2017-Nov-12 00:30S 22°16' E 166°26'0 0.0
2017-Nov-12 00:00S 22°16' E 166°26'0 0.0
2017-Nov-11 23:30S 22°16' E 166°26'0 0.0
2017-Nov-11 23:00S 22°16' E 166°26'0 0.0
2017-Nov-11 22:27S 22°16' E 166°26'0 0.0
2017-Nov-11 22:00S 22°16' E 166°26'0 0.0
2017-Nov-11 21:30S 22°16' E 166°26'0 0.0
2017-Nov-11 21:00S 22°16' E 166°26'0 0.0
2017-Nov-11 20:30S 22°16' E 166°26'0 0.0
2017-Nov-11 20:00S 22°16' E 166°26'0 0.0
2017-Nov-11 19:30S 22°16' E 166°26'0 0.0
2017-Nov-11 19:00S 22°16' E 166°26'0 0.0
2017-Nov-11 18:30S 22°16' E 166°26'1 2.4
2017-Nov-11 18:00S 22°15' E 166°25'611.4
2017-Nov-11 17:30S 22°17' E 166°19'713.3
2017-Nov-11 17:00S 22°22' E 166°14'4 7.5
2017-Nov-11 16:30S 22°24' E 166°11'4 9.1
2017-Nov-11 16:00S 22°26' E 166°06'  
2017-Nov-08 23:15S 26°56' E 153°12'413.2
2017-Nov-08 22:58S 26°60' E 153°14'612.2
2017-Nov-08 22:27S 27°05' E 153°19'613.0
2017-Nov-08 22:00S 27°10' E 153°21'612.7
2017-Nov-08 21:30S 27°15' E 153°18'713.4
2017-Nov-08 21:00S 27°20' E 153°12'2 4.8
2017-Nov-08 20:29S 27°22' E 153°11'0 0.0
2017-Nov-08 19:59S 27°22' E 153°11'0 0.0
2017-Nov-08 19:29S 27°22' E 153°11'0 0.0
2017-Nov-08 18:59S 27°22' E 153°11'0 0.0
2017-Nov-08 18:29S 27°22' E 153°11'0 0.0
2017-Nov-08 17:59S 27°22' E 153°11'0 0.0
2017-Nov-08 17:29S 27°22' E 153°11'0 0.0
2017-Nov-08 16:59S 27°22' E 153°11'0 0.0
2017-Nov-08 16:29S 27°22' E 153°11'0 0.0
2017-Nov-08 15:59S 27°22' E 153°11'0 0.0
2017-Nov-08 15:29S 27°22' E 153°11'0 0.0
2017-Nov-08 14:59S 27°22' E 153°11'0 0.0
2017-Nov-08 14:29S 27°22' E 153°11'0 0.0
2017-Nov-08 13:59S 27°22' E 153°11'0 0.0
2017-Nov-08 13:29S 27°22' E 153°11'0 0.0
2017-Nov-08 12:59S 27°22' E 153°11'0 0.0
2017-Nov-08 12:29S 27°22' E 153°11'0 0.0
2017-Nov-08 11:59S 27°22' E 153°11'0 0.0
2017-Nov-08 11:29S 27°22' E 153°11'0 0.0
2017-Nov-08 10:56S 27°22' E 153°11'0 0.0
2017-Nov-08 10:29S 27°22' E 153°11'0 0.0
2017-Nov-08 09:59S 27°22' E 153°11'0 0.0
2017-Nov-08 09:29S 27°22' E 153°11'0 0.0
2017-Nov-08 08:59S 27°22' E 153°11'0 0.0
2017-Nov-08 08:29S 27°22' E 153°11'0 0.0
2017-Nov-08 07:59S 27°22' E 153°11'0 0.4
2017-Nov-08 07:30S 27°22' E 153°10'4 7.4
2017-Nov-08 07:00S 27°19' E 153°13'612.9
2017-Nov-08 06:30S 27°15' E 153°19'611.3
2017-Nov-08 06:00S 27°10' E 153°21'510.9
2017-Nov-08 05:30S 27°05' E 153°19'510.7
2017-Nov-08 05:00S 27°01' E 153°15'612.0
2017-Nov-08 04:30S 26°55' E 153°12'45 7.4
2017-Nov-07 22:23S 27°33' E 153°40'513.0
2017-Nov-07 22:00S 27°38' E 153°40'612.7
2017-Nov-07 21:30S 27°44' E 153°41'612.9
2017-Nov-07 21:00S 27°51' E 153°41'713.2
2017-Nov-07 20:30S 27°57' E 153°42'713.1
2017-Nov-07 20:00S 28°04' E 153°42'612.4
2017-Nov-07 19:30S 28°10' E 153°43'612.6
2017-Nov-07 19:00S 28°16' E 153°43'712.5
2017-Nov-07 18:29S 28°23' E 153°43'25213.1
2017-Nov-06 23:15S 32°28' E 152°38'312.2
2017-Nov-06 23:00S 32°31' E 152°36'612.3
2017-Nov-06 22:29S 32°36' E 152°31'611.9
2017-Nov-06 22:00S 32°40' E 152°26'611.9
2017-Nov-06 21:30S 32°44' E 152°22'611.9
2017-Nov-06 21:00S 32°49' E 152°17'611.8
2017-Nov-06 20:30S 32°53' E 152°12'  

Dump ship's entire track history